createdAt,value
2019-03-11T00:03:16.453Z,79.24
2019-03-11T00:08:20.878Z,78.00
2019-03-11T00:13:25.315Z,78.32
2019-03-11T00:18:29.681Z,77.71
2019-03-11T00:23:34.044Z,77.94
2019-03-11T00:28:38.382Z,77.86
2019-03-11T00:33:42.878Z,78.40
2019-03-11T00:38:47.246Z,78.53
2019-03-11T00:43:51.604Z,79.50
2019-03-11T00:48:55.947Z,79.28
2019-03-11T00:54:00.342Z,78.54
2019-03-11T00:59:04.712Z,78.45
2019-03-11T01:04:09.060Z,78.15
2019-03-11T01:09:13.394Z,76.48
2019-03-11T01:14:17.740Z,76.94
2019-03-11T01:19:22.143Z,77.81
2019-03-11T01:24:26.493Z,79.79
2019-03-11T01:29:30.847Z,82.43
2019-03-11T01:34:36.178Z,82.87
2019-03-11T01:39:40.532Z,81.49
2019-03-11T01:44:44.914Z,80.75
2019-03-11T01:49:49.250Z,80.31
2019-03-11T01:54:53.595Z,78.83
2019-03-11T01:59:57.940Z,77.36
2019-03-11T02:05:02.314Z,76.19
2019-03-11T02:10:12.541Z,73.57
2019-03-11T02:15:20.312Z,72.97
2019-03-11T02:20:24.653Z,73.45
2019-03-11T02:25:28.987Z,73.53
2019-03-11T02:30:34.462Z,73.70
2019-03-11T02:35:38.846Z,74.20
2019-03-11T02:40:43.202Z,75.00
2019-03-11T02:45:47.560Z,75.29
2019-03-11T02:50:51.925Z,74.78
2019-03-11T02:55:56.276Z,73.62
2019-03-11T03:01:17.618Z,72.59
2019-03-11T03:06:21.968Z,70.76
2019-03-11T03:11:26.418Z,69.13
2019-03-11T03:16:30.728Z,69.90
2019-03-11T03:21:35.077Z,68.77
2019-03-11T03:26:39.439Z,68.17
2019-03-11T03:31:43.870Z,67.29
2019-03-11T03:36:48.405Z,67.24
2019-03-11T03:41:52.792Z,66.78
2019-03-11T03:46:57.241Z,67.68
2019-03-11T03:52:01.614Z,66.29
2019-03-11T03:57:05.995Z,66.59
2019-03-11T04:02:11.369Z,66.69
2019-03-11T04:07:15.762Z,66.63
2019-03-11T04:12:20.114Z,66.67
2019-03-11T04:17:24.459Z,68.02
2019-03-11T04:22:28.955Z,67.43
2019-03-11T04:27:33.352Z,68.79
2019-03-11T04:32:37.807Z,68.93
2019-03-11T04:37:42.113Z,69.15
2019-03-11T04:42:46.478Z,69.33
2019-03-11T04:47:50.863Z,70.22
2019-03-11T04:52:55.748Z,69.48
2019-03-11T04:58:00.164Z,68.86
2019-03-11T05:03:04.573Z,69.35
2019-03-11T05:08:08.914Z,68.87
2019-03-11T05:13:13.247Z,68.59
2019-03-11T05:18:17.603Z,68.66
2019-03-11T05:23:21.955Z,68.80
2019-03-11T05:28:26.392Z,68.58
2019-03-11T05:33:30.734Z,68.35
2019-03-11T05:38:35.151Z,68.24
2019-03-11T05:43:39.512Z,67.83
2019-03-11T05:48:43.869Z,67.75
2019-03-11T05:53:48.231Z,68.23
2019-03-11T05:58:52.604Z,67.84
2019-03-11T06:04:01.922Z,67.93
2019-03-11T06:09:07.037Z,67.91
2019-03-11T06:14:11.475Z,67.81
2019-03-11T06:19:15.811Z,67.06
2019-03-11T06:24:22.726Z,69.51
2019-03-11T06:29:30.741Z,67.14
2019-03-11T06:34:33.263Z,66.23
2019-03-11T06:39:37.601Z,66.07
2019-03-11T06:44:42.067Z,66.62
2019-03-11T06:49:46.399Z,65.83
2019-03-11T06:54:50.770Z,66.08
2019-03-11T06:59:55.236Z,66.44
2019-03-11T07:05:02.130Z,65.95
2019-03-11T07:10:09.301Z,66.57
2019-03-11T07:15:14.991Z,65.98
2019-03-11T07:20:19.836Z,65.68
2019-03-11T07:25:24.170Z,66.19
2019-03-11T07:30:28.511Z,66.63
2019-03-11T07:35:32.864Z,67.70
2019-03-11T07:40:37.254Z,67.83
2019-03-11T07:45:41.584Z,68.27
2019-03-11T07:50:46.111Z,68.51
2019-03-11T07:55:50.499Z,69.62
2019-03-11T08:00:54.856Z,69.56
2019-03-11T08:05:59.254Z,71.07
2019-03-11T08:11:03.712Z,72.55
2019-03-11T08:16:08.047Z,72.31
2019-03-11T08:21:12.516Z,71.87
2019-03-11T08:26:16.854Z,71.85
2019-03-11T08:31:21.332Z,71.16
2019-03-11T08:36:25.665Z,71.63
2019-03-11T08:41:30.058Z,71.24
2019-03-11T08:46:34.427Z,72.41
2019-03-11T08:51:38.903Z,70.02
2019-03-11T08:56:43.261Z,71.73
2019-03-11T09:01:47.737Z,73.22
2019-03-11T09:06:52.084Z,73.23
2019-03-11T09:11:56.521Z,73.97
2019-03-11T09:17:00.862Z,73.11
2019-03-11T09:22:05.384Z,71.88
2019-03-11T09:27:09.977Z,69.78
2019-03-11T09:32:15.276Z,68.22
2019-03-11T09:37:19.659Z,67.12
2019-03-11T09:42:24.034Z,64.73
2019-03-11T09:47:28.423Z,64.16
2019-03-11T09:52:32.739Z,60.94
2019-03-11T09:57:37.091Z,60.99
2019-03-11T10:02:51.636Z,59.25
2019-03-11T10:07:47.645Z,59.74
2019-03-11T10:12:52.044Z,58.27
2019-03-11T10:17:56.412Z,57.54
2019-03-11T10:23:00.761Z,56.37
2019-03-11T10:28:05.288Z,56.21
2019-03-11T10:33:09.611Z,55.36
2019-03-11T10:38:13.999Z,59.09
2019-03-11T10:43:18.329Z,58.78
2019-03-11T10:48:23.861Z,58.79
2019-03-11T10:53:28.185Z,55.76
2019-03-11T10:58:32.522Z,56.04
2019-03-11T11:03:36.886Z,56.03
2019-03-11T11:08:41.261Z,55.47
2019-03-11T11:13:46.714Z,54.69
2019-03-11T11:18:51.152Z,54.53
2019-03-11T11:23:55.573Z,54.69
2019-03-11T11:28:59.952Z,54.85
2019-03-11T11:34:04.300Z,59.93
2019-03-11T11:39:08.735Z,70.15
2019-03-11T11:44:13.383Z,71.23
2019-03-11T11:49:17.981Z,70.51
2019-03-11T11:54:22.376Z,67.42
2019-03-11T11:59:26.713Z,57.60
2019-03-11T12:04:31.087Z,55.54
2019-03-11T12:09:35.428Z,55.41
2019-03-11T12:14:39.776Z,56.60
2019-03-11T12:19:44.098Z,55.65
2019-03-11T12:24:48.456Z,55.56
2019-03-11T12:29:52.869Z,58.43
2019-03-11T12:34:57.239Z,61.88
2019-03-11T12:40:01.508Z,61.17
2019-03-11T12:45:09.431Z,60.70
2019-03-11T12:50:19.136Z,59.50
2019-03-11T12:55:23.566Z,57.81
2019-03-11T13:00:27.999Z,56.56
2019-03-11T13:05:32.323Z,56.01
2019-03-11T13:10:36.668Z,55.99
2019-03-11T13:15:41.022Z,56.72
2019-03-11T13:20:45.377Z,60.81
2019-03-11T13:25:49.861Z,59.83
2019-03-11T13:30:54.484Z,57.67
2019-03-11T13:35:58.806Z,54.48
2019-03-11T13:41:03.219Z,54.33
2019-03-11T13:46:07.653Z,54.51
2019-03-11T13:51:12.111Z,57.66
2019-03-11T13:56:17.508Z,66.87
2019-03-11T14:01:21.891Z,70.28
2019-03-11T14:06:26.247Z,68.83
2019-03-11T14:11:30.616Z,66.80
2019-03-11T14:16:34.992Z,65.06
2019-03-11T14:21:39.342Z,65.71
2019-03-11T14:26:43.705Z,64.54
2019-03-11T14:31:48.058Z,63.83
2019-03-11T14:36:52.437Z,62.87
2019-03-11T14:41:56.788Z,62.46
2019-03-11T14:47:01.128Z,61.04
2019-03-11T14:52:05.515Z,66.37
2019-03-11T14:57:10.951Z,70.71
2019-03-11T15:02:15.434Z,68.80
2019-03-11T15:07:19.750Z,68.64
2019-03-11T15:12:24.088Z,69.29
2019-03-11T15:17:28.465Z,68.01
2019-03-11T15:22:32.824Z,68.40
2019-03-11T15:27:37.197Z,67.42
2019-03-11T15:32:41.579Z,68.22
2019-03-11T15:37:46.001Z,68.02
2019-03-11T15:42:50.358Z,66.43
2019-03-11T15:47:54.952Z,65.65
2019-03-11T15:52:59.408Z,66.01
2019-03-11T15:58:03.779Z,65.25
2019-03-11T16:03:08.127Z,65.83
2019-03-11T16:08:12.509Z,66.68
2019-03-11T16:13:16.932Z,65.76
2019-03-11T16:18:21.308Z,65.42
2019-03-11T16:23:25.695Z,65.40
2019-03-11T16:28:30.079Z,64.84
2019-03-11T16:33:34.439Z,64.43
2019-03-11T16:38:38.774Z,65.46
2019-03-11T16:43:43.109Z,65.15
2019-03-11T16:48:47.497Z,65.15
2019-03-11T16:53:51.852Z,64.96
2019-03-11T16:58:56.159Z,64.58
2019-03-11T17:04:00.526Z,64.71
2019-03-11T17:09:06.303Z,65.00
2019-03-11T17:14:12.404Z,64.97
2019-03-11T17:19:16.757Z,65.13
2019-03-11T17:24:21.207Z,65.03
2019-03-11T17:29:25.564Z,64.52
2019-03-11T17:34:29.941Z,64.98
2019-03-11T17:39:34.291Z,66.47
2019-03-11T17:44:38.825Z,68.82
2019-03-11T17:49:43.285Z,69.95
2019-03-11T17:54:47.732Z,70.56
2019-03-11T17:59:52.175Z,72.15
2019-03-11T18:04:56.624Z,72.27
2019-03-11T18:10:00.966Z,72.10
2019-03-11T18:15:09.102Z,72.70
2019-03-11T18:20:17.697Z,73.54
2019-03-11T18:25:22.240Z,73.54
2019-03-11T18:30:30.908Z,72.90
2019-03-11T18:35:35.257Z,74.50
2019-03-11T18:40:39.605Z,78.84
2019-03-11T18:45:43.939Z,81.21
2019-03-11T18:50:48.334Z,83.68
2019-03-11T18:55:52.696Z,84.83
2019-03-11T19:00:57.059Z,84.44
2019-03-11T19:06:01.497Z,88.39
2019-03-11T19:11:06.020Z,89.11
2019-03-11T19:16:10.909Z,88.72
2019-03-11T19:21:15.412Z,86.91
2019-03-11T19:26:19.807Z,87.58
2019-03-11T19:31:24.168Z,88.69
2019-03-11T19:36:28.559Z,89.14
2019-03-11T19:41:33.020Z,90.38
2019-03-11T19:46:37.447Z,89.17
2019-03-11T19:51:41.881Z,91.26
2019-03-11T19:56:46.242Z,89.08
2019-03-11T20:01:50.621Z,89.31
2019-03-11T20:06:55.087Z,89.54
2019-03-11T20:11:59.583Z,91.13
2019-03-11T20:17:03.960Z,91.24
2019-03-11T20:22:08.578Z,89.11
2019-03-11T20:27:13.289Z,90.53
2019-03-11T20:32:17.735Z,88.18
2019-03-11T20:37:22.057Z,89.77
2019-03-11T20:42:26.549Z,90.69
2019-03-11T20:47:30.979Z,90.31
2019-03-11T20:52:36.499Z,90.61
2019-03-11T20:57:40.892Z,90.91
2019-03-11T21:02:45.517Z,88.50
2019-03-11T21:07:49.877Z,86.29
2019-03-11T21:12:54.263Z,86.36
2019-03-11T21:17:58.840Z,86.27
2019-03-11T21:23:03.280Z,85.14
2019-03-11T21:28:07.648Z,86.00
2019-03-11T21:33:12.174Z,85.65
2019-03-11T21:38:16.537Z,83.89
2019-03-11T21:43:20.949Z,85.07
2019-03-11T21:48:25.563Z,84.61
2019-03-11T21:53:29.878Z,86.62
2019-03-11T21:58:34.308Z,85.75
2019-03-11T22:03:40.304Z,85.31
2019-03-11T22:08:44.717Z,87.67
2019-03-11T22:13:50.713Z,88.94
2019-03-11T22:18:55.073Z,92.44
2019-03-11T22:23:59.535Z,93.69
2019-03-11T22:29:03.942Z,93.96
2019-03-11T22:34:08.330Z,94.02
2019-03-11T22:39:13.670Z,94.30
2019-03-11T22:44:18.141Z,92.80
2019-03-11T22:49:22.496Z,91.10
2019-03-11T22:54:26.925Z,91.03
2019-03-11T22:59:31.215Z,92.24
2019-03-11T23:04:35.562Z,91.76
2019-03-11T23:09:40.463Z,91.93
2019-03-11T23:14:44.808Z,91.71
2019-03-11T23:19:49.185Z,92.72
2019-03-11T23:24:53.570Z,93.32
2019-03-11T23:29:57.926Z,93.07
2019-03-11T23:35:02.295Z,92.02
2019-03-11T23:40:08.774Z,91.85
2019-03-11T23:45:13.128Z,91.57
2019-03-11T23:50:19.423Z,87.15
2019-03-11T23:55:23.637Z,87.07
